Soddy Daisy, TN (37379)

11:41 AM EDT on August 25, 2016 (GMT -0400)
High Ridge | | Change Station

Elev 801 ft 35.21 °N, 85.16 °W | Updated 18 seconds ago

Scattered Clouds
Scattered Clouds
86.8 °F
Feels Like 97 °F
N
0.0
Wind Variable Wind from West
Gusts 3.0 mph

Today
High -- | Low -- °F
--% Chance of Precip.
Yesterday
High -- | Low -- °F
Precip. -- in
Pressure 30.18 in
Visibility 10.0 miles
Clouds Few 3500 ft
Scattered Clouds 6000 ft
Heat Index 97 °F
Dew Point 75 °F
Humidity 69%
Rainfall 0.00 in
Snow Depth Not available.
7:08 AM 8:16 PM
Last Quarter, 44% visible
METAR KCHA 251453Z 18005KT 10SM FEW035 SCT060 28/21 A3021 RMK AO2 SLP219 T02830211 50000
Pressure 30.18 in
Visibility 10.0 miles
Clouds Few 3500 ft
Scattered Clouds 6000 ft
Heat Index 97 °F
Dew Point 75 °F
Humidity 69%
Rainfall 0.00 in
Snow Depth Not available.
7:08 AM 8:16 PM
Last Quarter, 44% visible
METAR KCHA 251453Z 18005KT 10SM FEW035 SCT060 28/21 A3021 RMK AO2 SLP219 T02830211 50000

10-Day Weather Forecast

Almanac

Astronomy

Aug. 25, 2016 Rise Set
Actual Time
Civil Twilight
Nautical Twilight
Astronomical Twilight
Moon
Length of Visible Light
Length of Day
Tomorrow will be .
, % of the Moon is Illuminated

Today's Extremes

State Highs State Lows

Community

WunderPhotos

Upload Photos

1,934,867 photos uploaded!

WunderBlog® & News

Nearby

Air Quality

  Air Quality AQ Index Pollutant
Not available.

Snow Depth

Station Depth Elevation

Earthquake Activity

City Distance Mag. Time & Date
Minimum magnitude displayed is 2.5.

Coastal Water Temperatures

Place Temperature

Stations

Nearby Weather Stations

Station Location Temp. Windchill Dew Point Humidity Wind Precip. Elev Updated Type
                   

Watches & Warnings

There are currently no watches in effect.